Stockertown, Pennsylvania
Current Conditions -  °F | °C
As of 6:51 PM on Thursday 27 Nov 2014 (Local Time) from KABE Reporting Station
Clear Clear  
Wind Chill: 25°   Ceiling: Unl
Heat Index: 31°   Visibility: 10mi
Dew Point: 24°   Wind: 6mph
Humidity: 76%   Direction: 260°W
Pressure: 30.06"   Gusts: NA
Location:  40.75°N, 75.26°W
Report Text: KABE 272351Z 26005KT 10SM CLR M01/M04 A3006 RMK AO2 SLP185 T10061044 10028 21011 53015 $
Loading
Personal Weather Stations






























Interactive Weather Map New forecast layout! Learn more

10-Day Weather Forecast

Advertisements
Track Severe Weather on mobile